Time,TemperatureF,DewpointF,PressureIn,WindDirection,WindDirectionDegrees,WindSpeedMPH,WindSpeedGustMPH,Humidity,HourlyPrecipIn,Conditions,Clouds,dailyrainin,SoftwareType,DateUTC
2013-06-16 00:14:00,71.1,62.4,29.89,SW,225,0.0,-999.0,74,-99.99,,,0.00,Acu-Link.com,2013-06-16 04:14:00,
2013-06-16 00:29:00,70.5,61.8,29.88,SW,225,0.0,-999.0,74,-99.99,,,0.00,Acu-Link.com,2013-06-16 04:29:00,
2013-06-16 00:44:00,70.0,61.7,29.89,SW,225,0.0,-999.0,75,-99.99,,,0.00,Acu-Link.com,2013-06-16 04:44:00,
2013-06-16 00:59:00,69.4,61.1,29.89,SW,225,0.0,-999.0,75,-99.99,,,0.00,Acu-Link.com,2013-06-16 04:59:00,
2013-06-16 01:14:00,69.1,61.2,29.89,SW,225,0.0,-999.0,76,-99.99,,,0.00,Acu-Link.com,2013-06-16 05:14:00,
2013-06-16 01:29:00,68.7,60.8,29.90,SW,225,0.0,-999.0,76,-99.99,,,0.00,Acu-Link.com,2013-06-16 05:29:00,
2013-06-16 01:44:00,68.4,60.5,29.90,SW,225,0.0,-999.0,76,-99.99,,,0.00,Acu-Link.com,2013-06-16 05:44:00,
2013-06-16 01:59:00,68.0,60.5,29.88,SW,225,0.0,-999.0,77,-99.99,,,0.00,Acu-Link.com,2013-06-16 05:59:00,
2013-06-16 02:14:00,67.6,60.1,29.88,SSW,202,0.0,-999.0,77,-99.99,,,0.00,Acu-Link.com,2013-06-16 06:14:00,
2013-06-16 02:30:00,67.3,60.2,29.89,SSW,202,0.0,-999.0,78,-99.99,,,0.00,Acu-Link.com,2013-06-16 06:30:00,
2013-06-16 02:45:00,66.9,60.2,29.88,SSW,202,0.0,-999.0,79,-99.99,,,0.00,Acu-Link.com,2013-06-16 06:45:00,
2013-06-16 03:00:00,66.6,60.2,29.88,SSW,202,0.0,-999.0,80,-99.99,,,0.00,Acu-Link.com,2013-06-16 07:00:00,
2013-06-16 03:15:00,66.2,60.5,29.88,SSW,202,0.0,-999.0,82,-99.99,,,0.00,Acu-Link.com,2013-06-16 07:15:00,
2013-06-16 03:30:00,65.8,60.1,29.87,SSW,202,0.0,-999.0,82,-99.99,,,0.00,Acu-Link.com,2013-06-16 07:30:00,
2013-06-16 03:45:00,65.7,60.4,29.86,South,180,0.0,-999.0,83,-99.99,,,0.00,Acu-Link.com,2013-06-16 07:45:00,
2013-06-16 04:00:00,65.7,60.4,29.87,South,180,0.0,-999.0,83,-99.99,,,0.00,Acu-Link.com,2013-06-16 08:00:00,
2013-06-16 04:15:00,65.5,60.5,29.87,NE,45,0.0,-999.0,84,-99.99,,,0.00,Acu-Link.com,2013-06-16 08:15:00,
2013-06-16 04:31:00,65.3,60.3,29.87,WNW,292,0.0,-999.0,84,-99.99,,,0.00,Acu-Link.com,2013-06-16 08:31:00,
2013-06-16 04:46:00,65.1,60.5,29.88,WNW,292,0.0,-999.0,85,-99.99,,,0.00,Acu-Link.com,2013-06-16 08:46:00,
2013-06-16 05:01:00,64.9,60.3,29.88,ENE,67,0.0,-999.0,85,-99.99,,,0.00,Acu-Link.com,2013-06-16 09:01:00,
2013-06-16 05:16:00,64.9,60.6,29.88,ENE,67,0.0,-999.0,86,-99.99,,,0.00,Acu-Link.com,2013-06-16 09:16:00,
2013-06-16 05:31:00,64.9,60.9,29.89,ENE,67,0.0,-999.0,87,-99.99,,,0.00,Acu-Link.com,2013-06-16 09:31:00,
2013-06-16 05:46:00,64.9,60.9,29.89,ENE,67,0.0,-999.0,87,-99.99,,,0.00,Acu-Link.com,2013-06-16 09:46:00,
2013-06-16 06:01:00,64.8,61.2,29.89,ENE,67,0.0,-999.0,88,-99.99,,,0.00,Acu-Link.com,2013-06-16 10:01:00,
2013-06-16 06:17:00,64.6,61.3,29.90,NE,45,0.0,-999.0,89,-99.99,,,0.00,Acu-Link.com,2013-06-16 10:17:00,
2013-06-16 06:32:00,64.6,61.6,29.90,NE,45,0.0,-999.0,90,-99.99,,,0.00,Acu-Link.com,2013-06-16 10:32:00,
2013-06-16 06:47:00,64.6,61.6,29.90,NE,45,0.0,-999.0,90,-99.99,,,0.00,Acu-Link.com,2013-06-16 10:47:00,
2013-06-16 07:02:00,64.8,62.1,29.90,NE,45,0.0,-999.0,91,-99.99,,,0.00,Acu-Link.com,2013-06-16 11:02:00,
2013-06-16 07:17:00,65.3,62.3,29.91,NE,45,0.0,-999.0,90,-99.99,,,0.00,Acu-Link.com,2013-06-16 11:17:00,
2013-06-16 07:32:00,66.0,63.3,29.91,NE,45,0.0,-999.0,91,-99.99,,,0.00,Acu-Link.com,2013-06-16 11:32:00,
2013-06-16 07:47:00,67.1,64.4,29.92,ENE,67,0.0,-999.0,91,-99.99,,,0.00,Acu-Link.com,2013-06-16 11:47:00,
2013-06-16 08:02:00,69.3,65.9,29.92,SW,225,0.0,-999.0,89,-99.99,,,0.00,Acu-Link.com,2013-06-16 12:02:00,
2013-06-16 08:17:00,70.7,66.3,29.92,WSW,247,0.0,-999.0,86,-99.99,,,0.00,Acu-Link.com,2013-06-16 12:17:00,
2013-06-16 08:33:00,72.0,66.9,29.92,WSW,247,0.0,-999.0,84,-99.99,,,0.00,Acu-Link.com,2013-06-16 12:33:00,
2013-06-16 08:48:00,73.4,67.6,29.93,WSW,247,1.1,-999.0,82,-99.99,,,0.00,Acu-Link.com,2013-06-16 12:48:00,
2013-06-16 09:03:00,74.3,67.7,29.94,WSW,247,1.1,-999.0,80,-99.99,,,0.00,Acu-Link.com,2013-06-16 13:03:00,
2013-06-16 09:18:00,76.6,68.8,29.94,ESE,112,0.0,-999.0,77,-99.99,,,0.00,Acu-Link.com,2013-06-16 13:18:00,
2013-06-16 09:33:00,77.9,69.3,29.94,SSW,202,1.7,-999.0,75,-99.99,,,0.00,Acu-Link.com,2013-06-16 13:33:00,
2013-06-16 09:48:00,78.1,69.5,29.93,East,90,1.1,-999.0,75,-99.99,,,0.00,Acu-Link.com,2013-06-16 13:48:00,
2013-06-16 10:03:00,79.2,69.8,29.93,SSE,157,2.2,-999.0,73,-99.99,,,0.00,Acu-Link.com,2013-06-16 14:03:00,
2013-06-16 10:18:00,79.7,70.3,29.92,WSW,247,2.7,-999.0,73,-99.99,,,0.00,Acu-Link.com,2013-06-16 14:18:00,
2013-06-16 10:33:00,79.5,69.7,29.91,SW,225,1.7,-999.0,72,-99.99,,,0.00,Acu-Link.com,2013-06-16 14:33:00,
2013-06-16 10:48:00,80.4,69.3,29.92,SSE,157,1.7,-999.0,69,-99.99,,,0.00,Acu-Link.com,2013-06-16 14:48:00,
2013-06-16 11:04:00,81.1,69.9,29.91,SSW,202,1.7,-999.0,69,-99.99,,,0.00,Acu-Link.com,2013-06-16 15:04:00,
2013-06-16 11:19:00,81.9,69.8,29.91,ENE,67,2.2,-999.0,67,-99.99,,,0.00,Acu-Link.com,2013-06-16 15:19:00,
2013-06-16 11:34:00,84.0,70.5,29.91,West,270,2.7,-999.0,64,-99.99,,,0.00,Acu-Link.com,2013-06-16 15:34:00,
2013-06-16 11:49:00,85.8,70.8,29.90,SSW,202,0.0,-999.0,61,-99.99,,,0.00,Acu-Link.com,2013-06-16 15:49:00,
2013-06-16 12:04:00,86.7,70.1,29.90,WSW,247,2.2,-999.0,58,-99.99,,,0.00,Acu-Link.com,2013-06-16 16:04:00,
2013-06-16 12:19:00,86.5,68.9,29.90,ESE,112,1.7,-999.0,56,-99.99,,,0.00,Acu-Link.com,2013-06-16 16:19:00,
2013-06-16 12:35:00,86.9,68.2,29.88,South,180,1.7,-999.0,54,-99.99,,,0.00,Acu-Link.com,2013-06-16 16:35:00,
2013-06-16 12:50:00,87.6,69.4,29.88,West,270,2.7,-999.0,55,-99.99,,,0.00,Acu-Link.com,2013-06-16 16:50:00,
2013-06-16 13:05:00,90.1,68.3,29.88,WSW,247,1.1,-999.0,49,-99.99,,,0.00,Acu-Link.com,2013-06-16 17:05:00,
2013-06-16 13:20:00,90.0,68.8,29.86,ENE,67,1.1,-999.0,50,-99.99,,,0.00,Acu-Link.com,2013-06-16 17:20:00,
2013-06-16 13:35:00,89.1,67.4,29.86,ESE,112,0.0,-999.0,49,-99.99,,,0.00,Acu-Link.com,2013-06-16 17:35:00,
2013-06-16 13:50:00,86.7,69.1,29.87,ESE,112,0.0,-999.0,56,-99.99,,,0.00,Acu-Link.com,2013-06-16 17:50:00,
2013-06-16 14:05:00,88.7,68.8,29.85,West,270,0.0,-999.0,52,-99.99,,,0.00,Acu-Link.com,2013-06-16 18:05:00,
2013-06-16 14:20:00,90.0,67.0,29.85,SW,225,1.7,-999.0,47,-99.99,,,0.00,Acu-Link.com,2013-06-16 18:20:00,
2013-06-16 14:35:00,88.7,67.6,29.84,West,270,1.7,-999.0,50,-99.99,,,0.00,Acu-Link.com,2013-06-16 18:35:00,
2013-06-16 14:51:00,88.3,68.4,29.83,East,90,1.1,-999.0,52,-99.99,,,0.00,Acu-Link.com,2013-06-16 18:51:00,
2013-06-16 15:06:00,88.5,66.9,29.83,WSW,247,2.7,-999.0,49,-99.99,,,0.00,Acu-Link.com,2013-06-16 19:06:00,
2013-06-16 15:21:00,89.1,66.8,29.83,SW,225,1.7,-999.0,48,-99.99,,,0.00,Acu-Link.com,2013-06-16 19:21:00,
2013-06-16 15:36:00,90.5,68.1,29.83,SSW,202,2.2,-999.0,48,-99.99,,,0.00,Acu-Link.com,2013-06-16 19:36:00,
2013-06-16 15:51:00,90.5,66.2,29.83,WNW,292,1.7,-999.0,45,-99.99,,,0.00,Acu-Link.com,2013-06-16 19:51:00,
2013-06-16 16:06:00,90.7,66.4,29.83,SSW,202,2.2,-999.0,45,-99.99,,,0.00,Acu-Link.com,2013-06-16 20:06:00,
2013-06-16 16:21:00,91.9,68.1,29.82,West,270,1.7,-999.0,46,-99.99,,,0.00,Acu-Link.com,2013-06-16 20:21:00,
2013-06-16 16:36:00,91.6,67.8,29.82,ESE,112,1.7,-999.0,46,-99.99,,,0.00,Acu-Link.com,2013-06-16 20:36:00,
2013-06-16 16:51:00,91.8,67.4,29.82,South,180,1.7,-999.0,45,-99.99,,,0.00,Acu-Link.com,2013-06-16 20:51:00,
2013-06-16 17:07:00,90.3,67.9,29.81,WSW,247,0.0,-999.0,48,-99.99,,,0.00,Acu-Link.com,2013-06-16 21:07:00,
2013-06-16 17:22:00,90.5,66.2,29.82,South,180,0.0,-999.0,45,-99.99,,,0.00,Acu-Link.com,2013-06-16 21:22:00,
2013-06-16 17:37:00,89.1,68.0,29.82,South,180,0.0,-999.0,50,-99.99,,,0.00,Acu-Link.com,2013-06-16 21:37:00,
2013-06-16 17:52:00,89.1,66.8,29.81,SW,225,0.0,-999.0,48,-99.99,,,0.00,Acu-Link.com,2013-06-16 21:52:00,
2013-06-16 18:07:00,88.5,67.5,29.80,ENE,67,1.7,-999.0,50,-99.99,,,0.00,Acu-Link.com,2013-06-16 22:07:00,
2013-06-16 18:22:00,88.0,69.2,29.81,SSW,202,0.0,-999.0,54,-99.99,,,0.00,Acu-Link.com,2013-06-16 22:22:00,
2013-06-16 18:37:00,86.7,67.5,29.80,SSW,202,0.0,-999.0,53,-99.99,,,0.00,Acu-Link.com,2013-06-16 22:37:00,
2013-06-16 18:52:00,85.8,66.7,29.80,SSW,202,0.0,-999.0,53,-99.99,,,0.00,Acu-Link.com,2013-06-16 22:52:00,
2013-06-16 19:07:00,85.1,67.6,29.81,South,180,0.0,-999.0,56,-99.99,,,0.00,Acu-Link.com,2013-06-16 23:07:00,
2013-06-16 19:22:00,84.4,66.4,29.81,East,90,0.0,-999.0,55,-99.99,,,0.00,Acu-Link.com,2013-06-16 23:22:00,
2013-06-16 19:38:00,83.8,66.4,29.79,South,180,0.0,-999.0,56,-99.99,,,0.00,Acu-Link.com,2013-06-16 23:38:00,
2013-06-16 19:53:00,82.9,66.6,29.80,ESE,112,0.0,-999.0,58,-99.99,,,0.00,Acu-Link.com,2013-06-16 23:53:00,
2013-06-16 20:08:00,82.0,66.7,29.80,ESE,112,0.0,-999.0,60,-99.99,,,0.00,Acu-Link.com,2013-06-17 00:08:00,
2013-06-16 20:23:00,81.0,66.7,29.79,East,90,0.0,-999.0,62,-99.99,,,0.00,Acu-Link.com,2013-06-17 00:23:00,
2013-06-16 20:38:00,80.1,67.3,29.80,East,90,0.0,-999.0,65,-99.99,,,0.00,Acu-Link.com,2013-06-17 00:38:00,
2013-06-16 20:53:00,78.8,66.9,29.80,ESE,112,0.0,-999.0,67,-99.99,,,0.00,Acu-Link.com,2013-06-17 00:53:00,
2013-06-16 21:08:00,78.3,66.8,29.80,East,90,0.0,-999.0,68,-99.99,,,0.00,Acu-Link.com,2013-06-17 01:08:00,
2013-06-16 21:23:00,77.5,66.9,29.82,ESE,112,0.0,-999.0,70,-99.99,,,0.00,Acu-Link.com,2013-06-17 01:23:00,
2013-06-16 21:38:00,77.0,66.9,29.83,SE,135,0.0,-999.0,71,-99.99,,,0.00,Acu-Link.com,2013-06-17 01:38:00,
2013-06-16 21:54:00,76.5,66.8,29.82,SE,135,0.0,-999.0,72,-99.99,,,0.00,Acu-Link.com,2013-06-17 01:54:00,
2013-06-16 22:09:00,76.1,66.8,29.83,SW,225,0.0,-999.0,73,-99.99,,,0.00,Acu-Link.com,2013-06-17 02:09:00,
2013-06-16 22:24:00,76.1,66.8,29.83,SSW,202,0.0,-999.0,73,-99.99,,,0.00,Acu-Link.com,2013-06-17 02:24:00,
2013-06-16 22:39:00,75.7,66.8,29.85,SSE,157,0.0,-999.0,74,-99.99,,,0.00,Acu-Link.com,2013-06-17 02:39:00,
2013-06-16 22:54:00,75.6,66.7,29.84,WSW,247,1.1,-999.0,74,-99.99,,,0.00,Acu-Link.com,2013-06-17 02:54:00,
2013-06-16 23:09:00,75.2,66.7,29.85,South,180,0.0,-999.0,75,-99.99,,,0.00,Acu-Link.com,2013-06-17 03:09:00,
2013-06-16 23:24:00,74.8,66.3,29.86,South,180,0.0,-999.0,75,-99.99,,,0.00,Acu-Link.com,2013-06-17 03:24:00,
2013-06-16 23:39:00,74.5,66.0,29.85,SSW,202,1.7,-999.0,75,-99.99,,,0.00,Acu-Link.com,2013-06-17 03:39:00,
2013-06-16 23:54:00,74.3,65.8,29.86,SSE,157,0.0,-999.0,75,-99.99,,,0.00,Acu-Link.com,2013-06-17 03:54:00,